createdAt,value
2018-12-18T00:01:25.682Z,0.20
2018-12-18T00:04:06.163Z,0.20
2018-12-18T00:06:36.698Z,0.20
2018-12-18T00:09:07.626Z,0.10
2018-12-18T00:11:42.270Z,0.00
2018-12-18T00:14:17.549Z,0.00
2018-12-18T00:16:48.597Z,0.00
2018-12-18T00:19:19.600Z,0.00
2018-12-18T00:22:00.214Z,-0.10
2018-12-18T00:24:40.933Z,-0.10
2018-12-18T00:27:11.557Z,-0.20
2018-12-18T00:29:52.038Z,-0.20
2018-12-18T00:32:22.521Z,-0.30
2018-12-18T00:34:51.549Z,-0.30
2018-12-18T00:37:22.573Z,-0.30
2018-12-18T00:39:56.193Z,-0.40
2018-12-18T00:42:36.632Z,-0.50
2018-12-18T00:45:14.026Z,-0.40
2018-12-18T00:47:45.363Z,-0.50
2018-12-18T00:50:14.430Z,-0.60
2018-12-18T00:52:47.573Z,-0.60
2018-12-18T00:55:29.239Z,-0.60
2018-12-18T00:58:03.335Z,-0.60
2018-12-18T01:00:41.009Z,-0.70
2018-12-18T01:03:16.800Z,-0.60
2018-12-18T01:05:57.498Z,-0.60
2018-12-18T01:08:28.016Z,-0.70
2018-12-18T01:11:08.186Z,-0.80
2018-12-18T01:13:45.333Z,-0.80
2018-12-18T01:16:19.894Z,-0.70
2018-12-18T01:18:50.821Z,-0.80
2018-12-18T01:21:28.223Z,-0.70
2018-12-18T01:24:14.648Z,-0.70
2018-12-18T01:26:45.061Z,-0.80
2018-12-18T01:29:25.290Z,-0.90
2018-12-18T01:32:05.481Z,-0.90
2018-12-18T01:34:38.777Z,-0.90
2018-12-18T01:37:09.555Z,-1.00
2018-12-18T01:39:44.511Z,-1.00
2018-12-18T01:42:16.474Z,-1.00
2018-12-18T01:44:50.337Z,-0.90
2018-12-18T01:47:19.652Z,-0.80
2018-12-18T01:49:54.241Z,-0.70
2018-12-18T01:52:26.356Z,-0.60
2018-12-18T01:55:00.205Z,-0.70
2018-12-18T01:57:37.899Z,-0.70
2018-12-18T02:00:06.787Z,-0.80
2018-12-18T02:02:44.938Z,-0.80
2018-12-18T02:05:25.370Z,-0.80
2018-12-18T02:07:56.844Z,-0.90
2018-12-18T02:10:31.324Z,-0.90
2018-12-18T02:15:58.310Z,-1.00
2018-12-18T02:18:30.002Z,-1.00
2018-12-18T02:21:03.656Z,-1.00
2018-12-18T02:23:44.460Z,-1.10
2018-12-18T02:26:25.040Z,-1.20
2018-12-18T02:29:07.011Z,-1.10
2018-12-18T02:31:37.492Z,-1.20
2018-12-18T02:34:13.873Z,-1.20
2018-12-18T02:36:44.378Z,-1.30
2018-12-18T02:39:15.241Z,-1.20
2018-12-18T02:41:46.215Z,-1.30
2018-12-18T02:44:21.575Z,-1.30
2018-12-18T02:46:49.081Z,-1.30
2018-12-18T02:49:19.511Z,-1.30
2018-12-18T02:51:50.480Z,-1.30
2018-12-18T02:54:21.153Z,-1.40
2018-12-18T02:56:51.981Z,-1.40
2018-12-18T02:59:32.369Z,-1.40
2018-12-18T03:02:13.125Z,-1.40
2018-12-18T03:04:47.277Z,-1.40
2018-12-18T03:07:16.422Z,-1.40
2018-12-18T03:09:50.165Z,-1.30
2018-12-18T03:12:30.405Z,-1.40
2018-12-18T03:15:04.072Z,-1.30
2018-12-18T03:17:32.536Z,-1.20
2018-12-18T03:20:06.694Z,-1.20
2018-12-18T03:22:46.616Z,-1.20
2018-12-18T03:25:26.564Z,-1.10
2018-12-18T03:27:59.882Z,-1.10
2018-12-18T03:30:30.855Z,-1.00
2018-12-18T03:33:11.458Z,-0.80
2018-12-18T03:35:44.716Z,-0.80
2018-12-18T03:38:13.872Z,-0.70
2018-12-18T03:40:47.624Z,-0.70
2018-12-18T03:43:16.834Z,-0.70
2018-12-18T03:45:50.530Z,-0.70
2018-12-18T03:48:24.335Z,-0.70
2018-12-18T03:51:05.006Z,-0.70
2018-12-18T03:53:42.106Z,-0.60
2018-12-18T03:56:13.252Z,-0.70
2018-12-18T03:58:40.696Z,-0.60
2018-12-18T04:01:14.840Z,-0.60
2018-12-18T04:03:48.579Z,-0.60
2018-12-18T04:06:19.854Z,-0.50
2018-12-18T04:09:00.250Z,-0.50
2018-12-18T04:11:35.290Z,-0.40
2018-12-18T04:14:08.539Z,-0.40
2018-12-18T04:16:39.600Z,-0.40
2018-12-18T04:19:10.430Z,-0.40
2018-12-18T04:21:41.248Z,-0.30
2018-12-18T04:24:12.200Z,-0.20
2018-12-18T04:26:43.193Z,-0.30
2018-12-18T04:29:13.936Z,-0.30
2018-12-18T04:31:54.245Z,-0.30
2018-12-18T04:34:23.655Z,-0.40
2018-12-18T04:36:54.585Z,-0.50
2018-12-18T04:39:25.463Z,-0.70
2018-12-18T04:42:00.884Z,-0.70
2018-12-18T04:47:31.464Z,-0.90
2018-12-18T04:50:01.893Z,-0.90
2018-12-18T04:52:32.444Z,-1.00
2018-12-18T04:55:18.904Z,-1.00
2018-12-18T04:57:56.365Z,-1.00
2018-12-18T05:03:30.582Z,-1.20
2018-12-18T05:06:04.227Z,-1.20
2018-12-18T05:20:33.983Z,-1.20
2018-12-18T05:23:10.044Z,-1.20
2018-12-18T05:25:37.496Z,-1.30
2018-12-18T05:28:16.251Z,-1.30
2018-12-18T05:30:47.564Z,-1.30
2018-12-18T05:36:20.847Z,-1.30
2018-12-18T05:41:55.680Z,-1.50
2018-12-18T05:44:24.817Z,-1.40
2018-12-18T05:46:55.909Z,-1.40
2018-12-18T05:49:26.656Z,-1.40
2018-12-18T05:52:17.468Z,-1.50
2018-12-18T05:54:57.716Z,-1.40
2018-12-18T05:57:28.985Z,-1.50
2018-12-18T05:59:59.768Z,-1.50
2018-12-18T06:05:28.075Z,-1.60
2018-12-18T06:08:07.889Z,-1.60
2018-12-18T06:10:38.334Z,-1.50
2018-12-18T06:13:24.780Z,-1.60
2018-12-18T06:18:52.158Z,-1.50
2018-12-18T06:21:29.624Z,-1.50
2018-12-18T06:24:00.832Z,-1.60
2018-12-18T06:29:37.805Z,-1.60
2018-12-18T06:32:12.786Z,-1.70
2018-12-18T06:34:43.761Z,-1.70
2018-12-18T06:37:28.035Z,-1.70
2018-12-18T06:40:01.350Z,-1.70
2018-12-18T06:45:31.886Z,-1.80
2018-12-18T06:48:18.470Z,-1.80
2018-12-18T06:50:52.201Z,-1.80
2018-12-18T06:53:23.270Z,-1.70
2018-12-18T06:55:56.691Z,-1.70
2018-12-18T06:58:30.348Z,-1.80
2018-12-18T07:01:05.322Z,-1.90
2018-12-18T07:03:39.353Z,-1.80
2018-12-18T07:06:08.499Z,-1.80
2018-12-18T07:08:45.801Z,-1.80
2018-12-18T07:13:52.640Z,-1.80
2018-12-18T07:16:23.680Z,-1.80
2018-12-18T07:21:55.832Z,-1.90
2018-12-18T07:24:30.654Z,-1.90
2018-12-18T07:27:04.293Z,-1.80
2018-12-18T07:29:33.337Z,-1.90
2018-12-18T07:32:02.318Z,-1.90
2018-12-18T07:34:33.469Z,-1.90
2018-12-18T07:37:04.199Z,-1.90
2018-12-18T07:39:33.064Z,-1.90
2018-12-18T07:42:06.732Z,-1.90
2018-12-18T07:44:37.717Z,-1.90
2018-12-18T07:47:06.658Z,-1.90
2018-12-18T07:52:42.628Z,-1.90
2018-12-18T07:55:23.217Z,-1.90
2018-12-18T07:58:10.429Z,-1.70
2018-12-18T08:00:54.328Z,-1.70
2018-12-18T08:03:35.855Z,-1.60
2018-12-18T08:09:09.650Z,-1.60
2018-12-18T08:11:49.518Z,-1.50
2018-12-18T08:14:23.289Z,-1.50
2018-12-18T08:16:54.345Z,-1.50
2018-12-18T08:22:23.538Z,-1.20
2018-12-18T08:27:55.865Z,-1.10
2018-12-18T08:33:28.210Z,-0.90
2018-12-18T08:38:58.648Z,-0.60
2018-12-18T08:41:32.297Z,-0.50
2018-12-18T08:43:59.783Z,-0.20
2018-12-18T08:46:40.349Z,1.40
2018-12-18T08:49:21.177Z,2.10
2018-12-18T08:51:56.416Z,2.80
2018-12-18T08:54:27.455Z,3.50
2018-12-18T08:56:54.865Z,3.70
2018-12-18T08:59:28.952Z,4.10
2018-12-18T09:04:56.696Z,4.50
2018-12-18T09:07:27.545Z,4.40
2018-12-18T09:12:53.811Z,4.50
2018-12-18T09:15:27.016Z,4.70
2018-12-18T09:17:54.465Z,4.90
2018-12-18T09:20:21.913Z,4.70
2018-12-18T09:22:49.368Z,4.60
2018-12-18T09:25:16.816Z,4.60
2018-12-18T09:27:44.235Z,4.60
2018-12-18T09:30:11.676Z,4.40
2018-12-18T09:32:39.124Z,4.60
2018-12-18T09:35:06.600Z,4.50
2018-12-18T09:37:42.337Z,4.50
2018-12-18T09:40:10.111Z,4.60
2018-12-18T09:42:43.181Z,4.60
2018-12-18T09:45:10.958Z,4.40
2018-12-18T09:47:38.369Z,4.30
2018-12-18T09:50:07.400Z,4.60
2018-12-18T09:52:34.872Z,4.60
2018-12-18T09:55:08.098Z,4.90
2018-12-18T09:57:41.268Z,5.20
2018-12-18T10:00:11.957Z,5.80
2018-12-18T10:06:02.302Z,6.40
2018-12-18T10:08:29.730Z,7.10
2018-12-18T10:10:57.148Z,7.50
2018-12-18T10:13:24.573Z,7.90
2018-12-18T10:15:51.990Z,7.80
2018-12-18T10:18:19.404Z,7.50
2018-12-18T10:20:46.888Z,7.80
2018-12-18T10:23:14.342Z,8.60
2018-12-18T10:25:41.793Z,8.40
2018-12-18T10:28:09.217Z,8.30
2018-12-18T10:30:36.673Z,9.00
2018-12-18T10:33:04.443Z,9.00
2018-12-18T10:35:36.486Z,8.50
2018-12-18T10:38:01.281Z,9.50
2018-12-18T10:40:32.393Z,10.00
2018-12-18T10:43:03.239Z,10.70
2018-12-18T10:45:31.775Z,11.10
2018-12-18T10:48:02.156Z,10.70
2018-12-18T10:50:41.181Z,10.20
2018-12-18T10:53:11.544Z,10.20
2018-12-18T10:55:42.472Z,10.70
2018-12-18T10:58:13.760Z,10.50
2018-12-18T11:00:50.115Z,9.80
2018-12-18T11:03:20.551Z,10.00
2018-12-18T11:05:51.734Z,10.20
2018-12-18T11:08:22.794Z,11.20
2018-12-18T11:10:54.063Z,10.20
2018-12-18T11:13:25.132Z,10.60
2018-12-18T11:15:58.882Z,11.00
2018-12-18T11:18:29.283Z,9.90
2018-12-18T11:21:00.242Z,10.00
2018-12-18T11:23:31.396Z,9.40
2018-12-18T11:26:01.736Z,8.90
2018-12-18T11:28:32.992Z,8.70
2018-12-18T11:31:06.310Z,8.40
2018-12-18T11:33:40.316Z,8.30
2018-12-18T11:36:16.420Z,8.10
2018-12-18T11:38:46.089Z,7.70
2018-12-18T11:41:23.875Z,7.60
2018-12-18T11:43:54.271Z,7.40
2018-12-18T11:46:23.206Z,7.20
2018-12-18T11:49:03.795Z,7.00
2018-12-18T11:51:34.365Z,6.60
2018-12-18T11:54:03.370Z,6.30
2018-12-18T11:56:37.542Z,6.40
2018-12-18T11:59:08.499Z,6.10
2018-12-18T12:01:39.497Z,5.90
2018-12-18T12:04:19.864Z,5.80
2018-12-18T12:06:50.431Z,5.80
2018-12-18T12:09:21.697Z,5.70
2018-12-18T12:11:52.612Z,5.60
2018-12-18T12:14:23.769Z,5.50
2018-12-18T12:16:55.056Z,5.40
2018-12-18T12:19:26.052Z,5.40
2018-12-18T12:21:56.890Z,5.50
2018-12-18T12:24:27.858Z,5.50
2018-12-18T12:27:01.038Z,5.50
2018-12-18T12:29:30.113Z,5.50
2018-12-18T12:32:00.938Z,5.40
2018-12-18T12:34:31.965Z,5.40
2018-12-18T12:37:02.920Z,5.30
2018-12-18T12:39:34.176Z,5.30
2018-12-18T12:42:03.146Z,5.50
2018-12-18T12:44:34.168Z,5.40
2018-12-18T12:47:04.726Z,5.30
2018-12-18T12:49:39.196Z,5.30
2018-12-18T12:52:10.498Z,5.40
2018-12-18T12:54:41.159Z,5.30
2018-12-18T12:57:12.465Z,5.50
2018-12-18T12:59:43.114Z,5.50
2018-12-18T13:02:11.914Z,5.60
2018-12-18T13:04:42.972Z,5.70
2018-12-18T13:07:14.185Z,5.80
2018-12-18T13:09:45.220Z,6.00
2018-12-18T13:12:25.695Z,6.00
2018-12-18T13:15:03.268Z,5.80
2018-12-18T13:17:36.993Z,5.80
2018-12-18T13:20:08.181Z,5.70
2018-12-18T13:22:39.380Z,5.70
2018-12-18T13:25:10.434Z,5.80
2018-12-18T13:27:41.524Z,5.80
2018-12-18T13:30:12.484Z,5.90
2018-12-18T13:32:46.453Z,5.90
2018-12-18T13:35:20.475Z,6.00
2018-12-18T13:37:50.959Z,6.00
2018-12-18T13:40:22.207Z,6.00
2018-12-18T13:42:53.311Z,5.90
2018-12-18T13:45:24.014Z,5.90
2018-12-18T13:47:57.714Z,5.90
2018-12-18T13:50:30.946Z,5.90
2018-12-18T13:53:04.072Z,5.90
2018-12-18T13:55:39.307Z,5.90
2018-12-18T13:58:17.245Z,5.90
2018-12-18T14:00:48.324Z,5.80
2018-12-18T14:03:20.349Z,5.80
2018-12-18T14:05:51.179Z,5.90
2018-12-18T14:08:22.296Z,5.80
2018-12-18T14:10:53.388Z,5.80
2018-12-18T14:13:24.461Z,5.70
2018-12-18T14:15:55.384Z,5.70
2018-12-18T14:18:26.506Z,5.50
2018-12-18T14:20:57.687Z,5.50
2018-12-18T14:23:26.801Z,5.40
2018-12-18T14:25:57.221Z,5.40
2018-12-18T14:28:28.346Z,5.40
2018-12-18T14:30:59.341Z,5.30
2018-12-18T14:33:28.388Z,5.30
2018-12-18T14:35:58.943Z,5.30
2018-12-18T14:38:30.000Z,5.20
2018-12-18T14:40:59.075Z,5.10
2018-12-18T14:43:28.223Z,5.10
2018-12-18T14:45:59.281Z,5.00
2018-12-18T14:48:39.896Z,5.10
2018-12-18T14:51:10.636Z,5.00
2018-12-18T14:53:39.762Z,4.90
2018-12-18T14:56:13.654Z,4.80
2018-12-18T14:58:44.131Z,4.80
2018-12-18T15:01:15.409Z,4.80
2018-12-18T15:03:46.562Z,4.70
2018-12-18T15:06:15.476Z,4.60
2018-12-18T15:08:46.605Z,4.50
2018-12-18T15:11:19.809Z,4.60
2018-12-18T15:13:48.662Z,4.50
2018-12-18T15:16:19.919Z,4.30
2018-12-18T15:18:53.438Z,4.20
2018-12-18T15:21:23.843Z,4.30
2018-12-18T15:23:55.021Z,4.30
2018-12-18T15:26:26.053Z,4.30
2018-12-18T15:28:54.927Z,4.20
2018-12-18T15:31:25.864Z,4.30
2018-12-18T15:33:56.631Z,4.50
2018-12-18T15:36:27.889Z,4.40
2018-12-18T15:38:59.127Z,4.40
2018-12-18T15:41:32.951Z,4.30
2018-12-18T15:44:04.271Z,4.30
2018-12-18T15:46:35.244Z,4.30
2018-12-18T15:49:22.324Z,4.30
2018-12-18T15:51:51.359Z,4.10
2018-12-18T15:54:22.641Z,4.10
2018-12-18T15:56:53.833Z,4.10
2018-12-18T15:59:27.779Z,4.00
2018-12-18T16:01:58.255Z,4.00
2018-12-18T16:04:29.181Z,3.90
2018-12-18T16:06:58.259Z,3.90
2018-12-18T16:09:26.624Z,3.90
2018-12-18T16:11:57.881Z,3.70
2018-12-18T16:14:29.377Z,3.60
2018-12-18T16:17:03.270Z,3.50
2018-12-18T16:19:39.041Z,3.50
2018-12-18T16:25:22.555Z,3.60
2018-12-18T16:27:58.190Z,3.60
2018-12-18T16:30:32.295Z,3.60
2018-12-18T16:33:01.469Z,3.60
2018-12-18T16:38:32.219Z,3.60
2018-12-18T16:41:02.810Z,3.60
2018-12-18T16:43:31.878Z,3.60
2018-12-18T16:46:05.593Z,3.60
2018-12-18T16:48:36.825Z,3.50
2018-12-18T16:51:07.786Z,3.50
2018-12-18T16:53:38.788Z,3.50
2018-12-18T16:56:12.641Z,3.60
2018-12-18T16:58:46.188Z,3.50
2018-12-18T17:01:16.515Z,3.40
2018-12-18T17:03:47.489Z,3.30
2018-12-18T17:06:16.306Z,3.30
2018-12-18T17:08:48.217Z,3.30
2018-12-18T17:11:17.266Z,3.10
2018-12-18T17:13:46.370Z,3.00
2018-12-18T17:16:17.414Z,3.10
2018-12-18T17:18:46.413Z,3.10
2018-12-18T17:21:17.175Z,3.10
2018-12-18T17:23:50.156Z,3.30
2018-12-18T17:26:18.799Z,3.30
2018-12-18T17:28:49.645Z,3.20
2018-12-18T17:31:18.580Z,3.30
2018-12-18T17:33:52.292Z,3.30
2018-12-18T17:36:26.169Z,3.30
2018-12-18T17:38:57.320Z,3.30
2018-12-18T17:41:32.821Z,3.20
2018-12-18T17:44:05.954Z,3.00
2018-12-18T17:46:35.118Z,3.20
2018-12-18T17:49:08.734Z,3.20
2018-12-18T17:51:42.711Z,3.10
2018-12-18T17:54:11.754Z,3.20
2018-12-18T17:56:45.370Z,3.20
2018-12-18T17:59:19.451Z,3.20
2018-12-18T18:01:53.240Z,3.10
2018-12-18T18:04:22.495Z,2.80
2018-12-18T18:06:51.596Z,2.70
2018-12-18T18:09:25.501Z,2.60
2018-12-18T18:11:56.659Z,2.30
2018-12-18T18:14:27.688Z,2.30
2018-12-18T18:17:01.301Z,2.00
2018-12-18T18:19:32.354Z,1.70
2018-12-18T18:22:05.997Z,1.60
2018-12-18T18:24:35.236Z,1.50
2018-12-18T18:27:06.206Z,1.30
2018-12-18T18:29:35.251Z,1.10
2018-12-18T18:32:07.189Z,1.00
2018-12-18T18:34:38.039Z,0.90
2018-12-18T18:37:15.715Z,0.90
2018-12-18T18:39:44.802Z,0.80
2018-12-18T18:42:15.650Z,0.80
2018-12-18T18:44:44.784Z,0.80
2018-12-18T18:47:22.499Z,0.80
2018-12-18T18:49:53.656Z,1.00
2018-12-18T18:52:31.117Z,0.80
2018-12-18T18:55:01.593Z,1.00
2018-12-18T18:57:35.344Z,1.10
2018-12-18T19:00:07.698Z,1.60
2018-12-18T19:02:36.488Z,2.20
2018-12-18T19:05:07.231Z,2.40
2018-12-18T19:07:38.287Z,2.50
2018-12-18T19:10:07.302Z,2.50
2018-12-18T19:12:42.929Z,2.50
2018-12-18T19:15:20.787Z,2.60
2018-12-18T19:17:50.054Z,2.70
2018-12-18T19:20:23.883Z,2.70
2018-12-18T19:22:53.132Z,2.70
2018-12-18T19:25:23.887Z,2.60
2018-12-18T19:27:57.407Z,2.60
2018-12-18T19:30:28.748Z,2.60
2018-12-18T19:32:57.625Z,2.70
2018-12-18T19:35:29.380Z,2.60
2018-12-18T19:38:03.173Z,2.70
2018-12-18T19:40:34.526Z,2.60
2018-12-18T19:43:07.698Z,2.80
2018-12-18T19:45:38.904Z,2.90
2018-12-18T19:48:15.658Z,2.90
2018-12-18T19:50:49.573Z,2.90
2018-12-18T19:53:20.497Z,3.00
2018-12-18T19:55:49.258Z,2.90
2018-12-18T19:58:22.866Z,3.00
2018-12-18T20:00:52.239Z,3.00
2018-12-18T20:03:22.724Z,2.90
2018-12-18T20:05:51.708Z,3.00
2018-12-18T20:08:20.814Z,2.90
2018-12-18T20:10:54.494Z,2.90
2018-12-18T20:13:28.342Z,3.10
2018-12-18T20:15:59.385Z,2.90
2018-12-18T20:18:28.144Z,2.70
2018-12-18T20:20:59.296Z,2.70
2018-12-18T20:23:28.157Z,2.50
2018-12-18T20:25:57.343Z,2.50
2018-12-18T20:28:31.115Z,2.30
2018-12-18T20:31:01.859Z,2.30
2018-12-18T20:33:30.836Z,2.60
2018-12-18T20:35:59.789Z,2.80
2018-12-18T20:38:33.487Z,2.60
2018-12-18T20:41:04.676Z,2.70
2018-12-18T20:43:33.545Z,2.80
2018-12-18T20:46:04.714Z,2.70
2018-12-18T20:48:33.555Z,2.80
2018-12-18T20:51:02.705Z,2.70
2018-12-18T20:53:31.567Z,2.70
2018-12-18T20:56:02.615Z,2.70
2018-12-18T20:58:36.286Z,2.70
2018-12-18T21:01:06.654Z,2.70
2018-12-18T21:03:35.814Z,2.50
2018-12-18T21:06:06.608Z,2.50
2018-12-18T21:08:40.279Z,2.70
2018-12-18T21:11:14.076Z,2.80
2018-12-18T21:13:47.888Z,2.90
2018-12-18T21:16:22.356Z,3.00
2018-12-18T21:19:00.188Z,2.90
2018-12-18T21:21:30.589Z,2.90
2018-12-18T21:23:59.764Z,2.90
2018-12-18T21:26:33.550Z,3.00
2018-12-18T21:29:06.677Z,3.00
2018-12-18T21:31:37.654Z,3.10
2018-12-18T21:34:11.392Z,3.20
2018-12-18T21:36:41.633Z,3.10
2018-12-18T21:39:12.695Z,3.10
2018-12-18T21:41:41.561Z,3.10
2018-12-18T21:44:12.602Z,3.10
2018-12-18T21:46:43.548Z,3.30
2018-12-18T21:49:14.410Z,3.20
2018-12-18T21:51:43.467Z,3.30
2018-12-18T21:54:14.587Z,3.30
2018-12-18T21:56:47.669Z,3.40
2018-12-18T21:59:21.313Z,3.50
2018-12-18T22:01:52.480Z,3.40
2018-12-18T22:04:23.651Z,3.40
2018-12-18T22:06:54.492Z,3.30
2018-12-18T22:09:23.440Z,3.40
2018-12-18T22:11:54.287Z,3.30
2018-12-18T22:14:25.244Z,3.30
2018-12-18T22:16:54.415Z,3.40
2018-12-18T22:19:25.604Z,3.30
2018-12-18T22:22:03.132Z,3.30
2018-12-18T22:24:33.548Z,3.20
2018-12-18T22:27:04.475Z,3.20
2018-12-18T22:29:33.432Z,3.20
2018-12-18T22:32:04.209Z,3.10
2018-12-18T22:34:37.878Z,3.10
2018-12-18T22:37:09.031Z,3.10
2018-12-18T22:39:49.536Z,3.10
2018-12-18T22:42:18.182Z,3.10
2018-12-18T22:44:49.093Z,3.20
2018-12-18T22:47:23.905Z,3.30
2018-12-18T22:50:05.238Z,3.20
2018-12-18T22:52:35.874Z,3.20
2018-12-18T22:55:06.592Z,3.30
2018-12-18T22:57:47.306Z,3.30
2018-12-18T23:00:23.740Z,3.30
2018-12-18T23:02:54.258Z,3.30
2018-12-18T23:05:25.262Z,3.30
2018-12-18T23:07:56.563Z,3.30
2018-12-18T23:10:25.701Z,3.30
2018-12-18T23:13:06.098Z,3.30
2018-12-18T23:15:36.616Z,3.30
2018-12-18T23:18:05.944Z,3.40
2018-12-18T23:20:37.153Z,3.30
2018-12-18T23:23:06.113Z,3.30
2018-12-18T23:25:36.982Z,3.40
2018-12-18T23:28:14.856Z,3.40
2018-12-18T23:30:45.939Z,3.50
2018-12-18T23:33:14.794Z,3.40
2018-12-18T23:35:48.615Z,3.40
2018-12-18T23:38:19.873Z,3.40
2018-12-18T23:40:53.677Z,3.30
2018-12-18T23:43:24.928Z,3.20
2018-12-18T23:45:58.398Z,3.20
2018-12-18T23:48:32.356Z,3.20
2018-12-18T23:51:01.336Z,3.30
2018-12-18T23:53:32.421Z,3.30
2018-12-18T23:56:06.045Z,3.30
2018-12-18T23:58:37.399Z,3.30
